KMGJ/MGJ METAR and TAF weather

Enter ICAO airport designator
Station Type Date Time Source
KMGJ METAR 2021/05/15 22:54 UTC NOAA

KMGJ 152254Z AUTO 00000KT 10SM CLR 20/06 A3016 RMK AO2 SLP214 T02000061


Station Type Date Time Source
KMGJ Decoded METAR 2021/05/15 22:54 UTC NOAA

MONTGOMERY ORANGE CO AIRPORT, NY, United States (KMGJ) 41-31N 074-16W 108M
May 15, 2021 - 06:54 PM EDT / 2021.05.15 2254 UTC
Wind: Calm:0
Visibility: 10 mile(s):0
Sky conditions: clear
Temperature: 68.0 F (20.0 C)
Dew Point: 43.0 F (6.1 C)
Relative Humidity: 40%
Pressure (altimeter): 30.16 in. Hg (1021 hPa)
ob: KMGJ 152254Z AUTO 00000KT 10SM CLR 20/06 A3016 RMK AO2 SLP214 T02000061
cycle: 23

Station Type Date Time Source
KMGJ TAF UTC NOAA

Error!

Example: see airport list